Time;durP1;ratioP1;P1;durP2;ratioP2;P2;SDS_P1;SDS_P2;PMS_P1;PMS_P2;Temp;Humidity;BMP_temperature;BMP_pressure;BME280_temperature;BME280_humidity;BME280_pressure;Samples;Min_cycle;Max_cycle;Signal;HPM_P1;HPM_P2
2021/12/12 00:00:09;;;;;;;10.85;7.00;;;4.20;99.90;;;;;;5038227;28;20045;-76
2021/12/12 00:05:43;;;;;;;14.77;7.22;;;4.20;99.90;;;;;;5069285;28;20184;-76
2021/12/12 00:08:11;;;;;;;22.58;9.82;;;4.20;99.90;;;;;;5040458;28;20052;-76
2021/12/12 00:10:40;;;;;;;24.02;11.13;;;4.20;99.90;;;;;;5020157;28;20041;-76
2021/12/12 00:13:17;;;;;;;19.83;10.52;;;4.20;99.90;;;;;;5036034;28;20048;-77
2021/12/12 00:15:43;;;;;;;15.80;8.55;;;4.30;99.90;;;;;;5022493;28;20049;-77
2021/12/12 00:18:09;;;;;;;6.65;4.30;;;4.30;99.90;;;;;;5065392;28;20041;-76
2021/12/12 00:20:35;;;;;;;10.90;5.05;;;4.30;99.90;;;;;;5034250;28;20057;-77
2021/12/12 00:23:01;;;;;;;18.48;7.90;;;4.30;99.90;;;;;;5018025;28;20032;-76
2021/12/12 00:25:32;;;;;;;12.02;6.10;;;4.40;99.90;;;;;;5021242;28;20064;-76
2021/12/12 00:27:59;;;;;;;28.77;10.30;;;4.30;99.90;;;;;;5044996;28;20037;-77
2021/12/12 00:30:26;;;;;;;16.05;7.10;;;4.40;99.90;;;;;;5039155;28;20386;-77
2021/12/12 00:32:52;;;;;;;11.30;5.30;;;4.40;99.90;;;;;;5039195;28;20033;-76
2021/12/12 00:35:19;;;;;;;9.32;4.18;;;4.40;99.90;;;;;;5039428;28;20405;-76
2021/12/12 00:37:47;;;;;;;12.77;6.68;;;4.40;99.90;;;;;;5041615;28;20772;-76
2021/12/12 00:40:29;;;;;;;18.42;8.40;;;4.40;99.90;;;;;;5037985;28;20056;-76
2021/12/12 00:43:00;;;;;;;10.40;4.57;;;4.40;99.90;;;;;;5025316;28;20060;-77
2021/12/12 00:45:27;;;;;;;9.13;5.00;;;4.40;99.90;;;;;;5022937;28;20086;-77
2021/12/12 00:47:54;;;;;;;16.02;7.13;;;4.40;99.90;;;;;;5025821;28;20038;-77
2021/12/12 00:50:26;;;;;;;14.45;7.07;;;4.40;99.90;;;;;;5039238;28;20554;-76
2021/12/12 00:52:53;;;;;;;16.63;10.25;;;4.40;99.90;;;;;;5040918;28;20033;-76
2021/12/12 00:55:19;;;;;;;13.52;8.73;;;4.40;99.90;;;;;;5042713;28;20037;-76
2021/12/12 00:57:50;;;;;;;26.27;11.55;;;4.50;99.90;;;;;;5040503;28;20040;-76
2021/12/12 01:00:36;;;;;;;22.15;6.88;;;4.40;99.90;;;;;;5065357;28;20045;-76
2021/12/12 01:03:03;;;;;;;12.27;7.43;;;4.50;99.90;;;;;;5029469;28;20508;-76
2021/12/12 01:05:30;;;;;;;8.50;5.30;;;4.50;99.90;;;;;;5041038;28;20077;-76
2021/12/12 01:07:56;;;;;;;6.10;4.90;;;4.50;99.90;;;;;;5033743;28;20037;-77
2021/12/12 01:10:30;;;;;;;17.42;8.60;;;4.50;99.90;;;;;;5036010;28;20069;-77
2021/12/12 01:12:58;;;;;;;21.25;6.13;;;4.50;99.90;;;;;;5052021;28;20117;-76
2021/12/12 01:15:38;;;;;;;16.48;7.57;;;4.60;99.90;;;;;;5045067;28;20045;-76
2021/12/12 01:18:13;;;;;;;12.02;6.35;;;4.60;99.90;;;;;;5039567;28;20041;-77
2021/12/12 01:21:31;;;;;;;21.63;8.35;;;4.60;99.90;;;;;;5051350;28;20429;-76
2021/12/12 01:24:03;;;;;;;10.48;7.00;;;4.60;99.90;;;;;;5024711;28;20057;-77
2021/12/12 01:26:30;;;;;;;15.00;6.25;;;4.60;99.90;;;;;;5023616;28;20044;-76
2021/12/12 01:28:58;;;;;;;17.58;9.38;;;4.60;99.90;;;;;;5039900;28;20049;-76
2021/12/12 01:31:29;;;;;;;18.63;10.50;;;4.60;99.90;;;;;;5071442;28;20122;-76
2021/12/12 01:34:10;;;;;;;15.85;8.45;;;4.60;99.90;;;;;;5027755;28;20041;-76
2021/12/12 01:37:04;;;;;;;11.40;7.20;;;4.60;99.90;;;;;;5032518;28;20045;-76
2021/12/12 01:39:36;;;;;;;18.92;9.07;;;4.60;99.90;;;;;;5013866;28;20049;-76
2021/12/12 01:42:09;;;;;;;15.00;8.23;;;4.70;99.90;;;;;;5025319;28;20041;-76
2021/12/12 01:44:46;;;;;;;21.90;10.82;;;4.70;99.90;;;;;;5023372;28;20512;-76
2021/12/12 01:47:52;;;;;;;16.00;8.27;;;4.70;99.90;;;;;;5039967;28;20286;-75
2021/12/12 01:50:37;;;;;;;18.30;8.43;;;4.70;99.90;;;;;;5016256;28;20041;-75
2021/12/12 01:53:06;;;;;;;32.08;9.90;;;4.70;99.90;;;;;;5017512;28;20080;-76
2021/12/12 01:55:37;;;;;;;9.43;6.00;;;4.70;99.90;;;;;;5018970;28;20464;-76
2021/12/12 01:58:09;;;;;;;17.48;7.50;;;4.70;99.90;;;;;;5033072;28;20045;-76
2021/12/12 02:01:09;;;;;;;14.60;8.43;;;4.70;99.90;;;;;;5013317;28;20449;-76
2021/12/12 02:03:39;;;;;;;16.45;7.68;;;4.70;99.90;;;;;;5037807;28;20048;-76
2021/12/12 02:06:08;;;;;;;16.17;7.82;;;4.80;99.90;;;;;;5025706;28;20076;-76
2021/12/12 02:08:36;;;;;;;37.22;12.32;;;4.80;99.90;;;;;;5021151;28;20274;-76
2021/12/12 02:11:06;;;;;;;14.02;7.97;;;4.80;99.90;;;;;;5069017;28;20052;-76
2021/12/12 02:13:39;;;;;;;12.23;7.57;;;4.80;99.90;;;;;;5064635;28;20045;-76
2021/12/12 02:16:07;;;;;;;34.00;10.20;;;4.80;99.90;;;;;;5025440;28;20048;-75
2021/12/12 02:18:37;;;;;;;23.92;9.32;;;4.80;99.90;;;;;;5023764;28;20108;-76
2021/12/12 02:21:17;;;;;;;10.45;5.28;;;4.80;99.90;;;;;;5038272;28;20076;-75
2021/12/12 02:24:17;;;;;;;12.93;6.68;;;4.80;99.90;;;;;;5036468;28;20041;-76
2021/12/12 02:37:55;;;;;;;12.68;8.13;;;5.00;99.90;;;;;;5026665;28;20049;-75
2021/12/12 02:40:29;;;;;;;14.90;7.25;;;5.00;99.90;;;;;;5051678;28;20060;-76
2021/12/12 02:42:56;;;;;;;17.63;6.80;;;5.00;99.90;;;;;;5014912;28;20043;-76
2021/12/12 02:45:23;;;;;;;8.35;5.50;;;5.10;99.90;;;;;;5018569;28;20050;-76
2021/12/12 02:47:59;;;;;;;18.17;9.93;;;5.10;99.90;;;;;;5041694;28;20464;-76
2021/12/12 02:50:33;;;;;;;20.67;8.25;;;5.10;99.90;;;;;;5036879;28;20404;-76
2021/12/12 02:53:13;;;;;;;22.65;8.95;;;5.10;99.90;;;;;;5049717;28;20679;-76
2021/12/12 02:55:46;;;;;;;26.13;11.35;;;5.10;99.90;;;;;;5018244;28;20037;-76
2021/12/12 02:58:19;;;;;;;11.85;6.30;;;5.10;99.90;;;;;;5041447;28;20037;-76
2021/12/12 03:01:00;;;;;;;16.70;8.20;;;5.10;99.90;;;;;;5039487;28;20044;-76
2021/12/12 03:03:29;;;;;;;18.33;9.13;;;5.20;99.90;;;;;;5067552;28;20047;-75
2021/12/12 03:05:56;;;;;;;9.30;5.47;;;5.20;99.90;;;;;;5053740;28;20485;-76
2021/12/12 03:08:22;;;;;;;23.30;9.05;;;5.10;99.90;;;;;;5027540;28;20396;-75
2021/12/12 03:10:51;;;;;;;11.13;6.25;;;5.20;99.90;;;;;;5041553;28;20041;-76
2021/12/12 03:13:17;;;;;;;24.98;11.48;;;5.20;99.90;;;;;;5054101;28;20040;-76
2021/12/12 03:15:44;;;;;;;22.17;7.13;;;5.20;99.90;;;;;;5036016;28;20121;-76
2021/12/12 03:18:15;;;;;;;17.73;10.48;;;5.20;99.90;;;;;;5022432;28;20399;-76
2021/12/12 03:20:46;;;;;;;18.75;8.00;;;5.20;99.90;;;;;;5076243;28;20128;-76
2021/12/12 03:23:20;;;;;;;27.50;10.35;;;5.20;99.90;;;;;;5037668;28;20099;-76
2021/12/12 03:25:51;;;;;;;14.85;7.95;;;5.20;99.90;;;;;;5034776;28;20152;-76
2021/12/12 03:28:20;;;;;;;19.17;8.45;;;5.20;99.90;;;;;;5041735;28;20259;-75
2021/12/12 03:30:47;;;;;;;16.48;8.27;;;5.30;99.90;;;;;;5024207;28;20067;-76
2021/12/12 03:33:13;;;;;;;12.48;5.82;;;5.30;99.90;;;;;;5034633;28;20048;-76
2021/12/12 03:35:40;;;;;;;11.63;7.45;;;5.30;99.90;;;;;;5077113;28;20041;-76
2021/12/12 03:38:07;;;;;;;23.25;8.77;;;5.30;99.90;;;;;;5016718;28;20037;-75
2021/12/12 03:40:37;;;;;;;14.27;7.28;;;5.30;99.90;;;;;;5033609;28;20124;-75
2021/12/12 03:43:05;;;;;;;12.38;7.28;;;5.30;99.90;;;;;;5029261;28;20033;-76
2021/12/12 03:45:32;;;;;;;12.95;7.55;;;5.30;99.90;;;;;;5022795;28;20052;-76
2021/12/12 03:48:03;;;;;;;17.95;7.72;;;5.30;99.90;;;;;;5034333;28;20064;-76
2021/12/12 03:50:33;;;;;;;15.02;7.43;;;5.30;99.90;;;;;;5032803;28;20048;-76
2021/12/12 03:52:59;;;;;;;6.70;4.80;;;5.30;99.90;;;;;;5019902;28;20041;-75
2021/12/12 03:55:27;;;;;;;16.88;9.23;;;5.20;99.90;;;;;;5040599;28;20149;-76
2021/12/12 03:57:53;;;;;;;15.70;7.70;;;5.30;99.90;;;;;;5035106;28;20053;-76
2021/12/12 04:00:27;;;;;;;14.02;7.47;;;5.30;99.90;;;;;;5022822;28;20043;-76
2021/12/12 04:02:53;;;;;;;9.38;5.13;;;5.30;99.90;;;;;;5041572;28;20044;-75
2021/12/12 04:05:19;;;;;;;9.80;5.70;;;5.30;99.90;;;;;;5044303;28;20076;-76
2021/12/12 04:07:46;;;;;;;8.98;4.88;;;5.30;99.90;;;;;;5042769;28;20496;-76
2021/12/12 04:10:18;;;;;;;7.65;5.28;;;5.30;99.90;;;;;;5034837;28;20056;-75
2021/12/12 04:12:44;;;;;;;16.73;7.55;;;5.30;99.90;;;;;;5018183;28;20048;-76
2021/12/12 04:15:10;;;;;;;21.27;8.43;;;5.30;99.90;;;;;;5044153;28;20041;-76
2021/12/12 04:17:36;;;;;;;27.33;12.18;;;5.30;99.90;;;;;;5041456;28;20060;-76
2021/12/12 04:20:14;;;;;;;14.43;7.90;;;5.30;99.90;;;;;;5018567;28;20347;-76
2021/12/12 04:22:40;;;;;;;13.25;7.93;;;5.30;99.90;;;;;;5024063;28;20124;-76
2021/12/12 04:25:06;;;;;;;6.75;4.03;;;5.30;99.90;;;;;;5038135;28;20398;-76
2021/12/12 04:27:33;;;;;;;13.63;7.38;;;5.30;99.90;;;;;;5057129;28;20041;-75
2021/12/12 04:30:03;;;;;;;11.43;7.03;;;5.30;99.90;;;;;;5038633;28;20397;-76
2021/12/12 04:32:29;;;;;;;15.85;6.53;;;5.30;99.90;;;;;;5029379;28;20041;-76
2021/12/12 04:35:04;;;;;;;8.80;5.50;;;5.30;99.90;;;;;;5009941;28;20048;-76
2021/12/12 04:37:30;;;;;;;7.30;3.17;;;5.30;99.90;;;;;;5044570;28;20048;-76
2021/12/12 04:39:58;;;;;;;5.82;3.05;;;5.30;99.90;;;;;;5069315;28;20097;-76
2021/12/12 04:42:31;;;;;;;6.88;5.10;;;5.30;99.90;;;;;;5041734;28;20358;-75
2021/12/12 04:45:19;;;;;;;6.45;5.25;;;5.30;99.90;;;;;;5026172;28;20418;-76
2021/12/12 04:51:17;;;;;;;8.52;5.32;;;5.30;99.90;;;;;;5070556;28;20048;-76
2021/12/12 04:54:09;;;;;;;5.65;3.65;;;5.30;99.90;;;;;;5040694;28;20042;-76
2021/12/12 04:56:58;;;;;;;3.00;2.33;;;5.30;99.90;;;;;;5071103;28;20123;-76
2021/12/12 04:59:35;;;;;;;5.78;4.30;;;5.40;99.90;;;;;;5071050;28;20095;-76
2021/12/12 05:02:08;;;;;;;7.28;4.40;;;5.40;99.90;;;;;;5018551;28;20052;-75
2021/12/12 05:04:44;;;;;;;7.43;4.93;;;5.40;99.90;;;;;;5026070;28;20041;-76
2021/12/12 05:07:17;;;;;;;4.50;2.13;;;5.40;99.90;;;;;;5038614;28;20040;-76
2021/12/12 05:09:58;;;;;;;5.25;3.63;;;5.40;99.90;;;;;;5043153;28;20052;-76
2021/12/12 05:12:34;;;;;;;5.05;3.13;;;5.40;99.90;;;;;;5013732;28;20037;-76
2021/12/12 05:15:13;;;;;;;13.82;5.88;;;5.40;99.90;;;;;;5033683;28;20503;-75
2021/12/12 05:17:44;;;;;;;12.20;4.53;;;5.40;99.90;;;;;;5021299;28;20135;-76
2021/12/12 05:20:16;;;;;;;4.13;3.60;;;5.40;99.90;;;;;;5053100;28;20092;-75
2021/12/12 05:22:49;;;;;;;3.90;3.15;;;5.50;99.90;;;;;;5039569;28;20033;-76
2021/12/12 05:25:19;;;;;;;0.90;0.90;;;5.50;99.90;;;;;;5063718;28;20187;-76
2021/12/12 05:27:47;;;;;;;3.15;2.55;;;5.50;99.90;;;;;;5029188;28;22373;-76
2021/12/12 05:30:20;;;;;;;7.85;4.70;;;5.50;99.90;;;;;;5035782;28;20033;-76
2021/12/12 05:32:48;;;;;;;3.35;2.95;;;5.50;99.90;;;;;;5017879;28;20037;-76
2021/12/12 05:35:17;;;;;;;5.18;3.33;;;5.60;99.90;;;;;;5037959;28;20106;-76
2021/12/12 05:37:48;;;;;;;3.90;3.20;;;5.60;99.90;;;;;;5035916;28;20069;-75
2021/12/12 05:40:15;;;;;;;5.45;3.28;;;5.60;99.90;;;;;;5041757;28;20048;-76
2021/12/12 05:42:42;;;;;;;10.43;5.18;;;5.60;99.90;;;;;;5040522;28;20072;-76
2021/12/12 05:45:09;;;;;;;3.97;2.55;;;5.60;99.90;;;;;;5068675;28;20045;-76
2021/12/12 05:47:36;;;;;;;3.95;2.47;;;5.60;99.90;;;;;;5041161;28;20040;-76
2021/12/12 05:50:04;;;;;;;2.97;2.58;;;5.70;99.90;;;;;;5020030;28;20033;-76
2021/12/12 05:52:30;;;;;;;8.90;5.75;;;5.70;99.90;;;;;;5027358;28;20029;-76
2021/12/12 05:54:56;;;;;;;4.43;3.20;;;5.70;99.90;;;;;;5040338;28;20121;-75
2021/12/12 05:57:25;;;;;;;9.48;6.18;;;5.70;99.90;;;;;;5040269;28;20094;-76
2021/12/12 05:59:54;;;;;;;6.80;4.05;;;5.80;99.90;;;;;;5033191;28;20060;-75
2021/12/12 06:02:22;;;;;;;4.22;3.47;;;5.80;99.90;;;;;;5033273;28;20139;-75
2021/12/12 06:04:48;;;;;;;6.72;3.53;;;5.80;99.90;;;;;;5036772;28;20033;-76
2021/12/12 06:07:17;;;;;;;5.03;4.13;;;5.80;99.90;;;;;;5054167;28;20046;-76
2021/12/12 06:09:45;;;;;;;5.63;3.45;;;5.80;99.90;;;;;;5020962;28;20449;-75
2021/12/12 06:12:12;;;;;;;5.38;3.13;;;5.90;99.90;;;;;;5024430;28;20084;-76
2021/12/12 06:14:39;;;;;;;8.05;5.00;;;5.90;99.90;;;;;;5023353;28;20051;-75
2021/12/12 06:17:11;;;;;;;6.00;3.45;;;5.90;99.90;;;;;;5052440;28;20300;-76
2021/12/12 06:19:38;;;;;;;13.23;7.70;;;6.00;99.90;;;;;;5034442;28;20049;-75
2021/12/12 06:22:05;;;;;;;3.45;3.03;;;6.00;99.90;;;;;;5038095;28;20072;-75
2021/12/12 06:24:32;;;;;;;6.50;4.22;;;6.00;99.90;;;;;;5041675;28;20049;-75
2021/12/12 06:27:08;;;;;;;4.07;2.83;;;6.00;99.90;;;;;;5038799;28;20037;-76
2021/12/12 06:29:35;;;;;;;4.47;3.42;;;6.10;99.90;;;;;;5034563;28;20052;-75
2021/12/12 06:32:03;;;;;;;4.53;2.53;;;6.00;99.90;;;;;;5028944;28;20041;-76
2021/12/12 06:34:29;;;;;;;7.57;5.20;;;6.10;99.90;;;;;;5040011;28;20124;-76
2021/12/12 06:36:56;;;;;;;3.15;2.42;;;6.10;99.90;;;;;;5029152;28;20132;-75
2021/12/12 06:39:22;;;;;;;8.65;5.93;;;6.20;99.90;;;;;;5040233;28;21012;-75
2021/12/12 06:41:50;;;;;;;5.55;4.55;;;6.20;99.90;;;;;;5039393;28;20037;-76
2021/12/12 06:44:16;;;;;;;6.82;3.97;;;6.20;99.90;;;;;;5021138;28;20132;-75
2021/12/12 06:46:43;;;;;;;9.57;5.75;;;6.20;99.90;;;;;;5027649;28;20098;-75
2021/12/12 06:49:12;;;;;;;6.82;4.28;;;6.20;99.90;;;;;;5026580;28;20052;-76
2021/12/12 06:51:41;;;;;;;5.30;4.38;;;6.20;99.90;;;;;;5044387;28;20033;-75
2021/12/12 06:54:08;;;;;;;7.43;5.60;;;6.20;99.90;;;;;;5021295;28;20480;-76
2021/12/12 06:56:35;;;;;;;4.57;3.53;;;6.30;99.90;;;;;;5020790;28;20045;-75
2021/12/12 06:59:02;;;;;;;6.00;3.92;;;6.20;99.90;;;;;;5044134;28;20102;-76
2021/12/12 07:01:31;;;;;;;4.95;3.65;;;6.30;99.90;;;;;;5044357;28;20489;-75
2021/12/12 07:03:57;;;;;;;7.95;4.95;;;6.20;99.90;;;;;;5036281;28;20528;-76
2021/12/12 07:06:26;;;;;;;4.32;3.40;;;6.20;99.90;;;;;;5027805;28;20383;-75
2021/12/12 07:08:56;;;;;;;12.18;7.15;;;6.20;99.90;;;;;;5041334;28;20039;-75
2021/12/12 07:11:23;;;;;;;9.60;5.72;;;6.30;99.90;;;;;;5026817;28;20040;-75
2021/12/12 07:13:51;;;;;;;11.75;4.55;;;6.30;99.90;;;;;;5027393;28;20037;-75
2021/12/12 07:16:18;;;;;;;6.82;3.67;;;6.30;99.90;;;;;;5022717;28;20045;-75
2021/12/12 07:18:44;;;;;;;10.63;7.45;;;6.30;99.90;;;;;;5025615;28;20055;-76
2021/12/12 07:21:12;;;;;;;6.53;4.78;;;6.40;99.90;;;;;;5021282;28;20450;-76
2021/12/12 07:23:41;;;;;;;8.93;5.85;;;6.40;99.90;;;;;;5041991;28;20033;-75
2021/12/12 07:26:09;;;;;;;2.92;2.40;;;6.40;99.90;;;;;;5023265;28;20153;-76
2021/12/12 07:28:36;;;;;;;5.55;2.97;;;6.40;99.90;;;;;;5044325;28;20124;-75
2021/12/12 07:31:06;;;;;;;12.77;7.72;;;6.40;99.90;;;;;;5023162;28;20044;-75
2021/12/12 07:33:33;;;;;;;3.85;2.47;;;6.40;99.90;;;;;;5023581;28;20049;-75
2021/12/12 07:36:01;;;;;;;2.03;1.92;;;6.40;99.90;;;;;;5047535;28;20427;-76
2021/12/12 07:38:29;;;;;;;3.97;3.33;;;6.50;99.90;;;;;;5037467;28;20037;-75
2021/12/12 07:40:57;;;;;;;6.38;4.18;;;6.50;99.90;;;;;;5054020;28;20038;-76
2021/12/12 07:43:23;;;;;;;7.47;5.07;;;6.50;99.90;;;;;;5023043;28;20443;-75
2021/12/12 07:45:49;;;;;;;10.27;5.93;;;6.50;99.90;;;;;;5039870;28;20064;-75
2021/12/12 07:48:16;;;;;;;4.60;3.17;;;6.60;99.90;;;;;;5041785;28;20048;-75
2021/12/12 07:50:44;;;;;;;8.73;5.38;;;6.60;99.90;;;;;;5021082;28;20045;-75
2021/12/12 07:53:10;;;;;;;4.20;3.08;;;6.60;99.90;;;;;;5041108;28;20049;-75
2021/12/12 07:55:37;;;;;;;5.13;3.20;;;6.60;99.90;;;;;;5038066;28;20084;-75
2021/12/12 07:58:10;;;;;;;2.55;2.35;;;6.60;99.90;;;;;;5038036;28;20045;-75
2021/12/12 08:00:36;;;;;;;3.42;1.92;;;6.60;99.90;;;;;;5031400;28;20096;-76
2021/12/12 08:03:04;;;;;;;6.97;4.93;;;6.60;99.90;;;;;;5036197;28;20387;-75
2021/12/12 08:05:34;;;;;;;2.65;2.25;;;6.70;99.90;;;;;;5038855;28;20042;-75
2021/12/12 08:08:04;;;;;;;8.43;6.50;;;6.70;99.90;;;;;;5040592;28;20155;-75
2021/12/12 08:10:30;;;;;;;5.10;4.22;;;6.70;99.90;;;;;;5027754;28;20033;-75
2021/12/12 08:12:57;;;;;;;5.63;3.58;;;6.70;99.90;;;;;;5035626;28;20037;-75
2021/12/12 08:15:23;;;;;;;3.95;2.78;;;6.70;99.90;;;;;;5042735;28;20056;-75
2021/12/12 08:17:49;;;;;;;12.43;6.32;;;6.70;99.90;;;;;;5057307;28;20049;-76
2021/12/12 08:20:16;;;;;;;4.90;4.13;;;6.70;99.90;;;;;;5038141;28;20052;-75
2021/12/12 08:22:46;;;;;;;3.10;2.40;;;6.70;99.90;;;;;;5024318;28;20051;-76
2021/12/12 08:25:14;;;;;;;5.30;3.30;;;6.80;99.90;;;;;;5021457;28;20041;-75
2021/12/12 08:27:40;;;;;;;5.28;3.88;;;6.80;99.90;;;;;;5027463;28;20041;-75
2021/12/12 08:30:08;;;;;;;5.38;4.05;;;6.80;99.90;;;;;;5039837;28;20119;-75
2021/12/12 08:32:34;;;;;;;3.42;2.72;;;6.80;99.90;;;;;;5037234;28;20047;-75
2021/12/12 08:35:00;;;;;;;6.60;3.25;;;6.80;99.90;;;;;;5035656;28;20041;-76
2021/12/12 08:37:28;;;;;;;7.82;3.25;;;6.90;99.90;;;;;;5043416;28;20134;-75
2021/12/12 08:39:55;;;;;;;5.32;3.53;;;6.90;99.90;;;;;;5038657;28;21592;-75
2021/12/12 08:42:26;;;;;;;8.10;5.32;;;6.90;99.90;;;;;;5031512;28;20041;-76
2021/12/12 08:44:57;;;;;;;7.63;4.72;;;7.00;99.90;;;;;;5036752;28;20829;-75
2021/12/12 08:47:24;;;;;;;5.47;4.10;;;7.00;99.90;;;;;;5038088;28;20076;-75
2021/12/12 08:49:50;;;;;;;4.60;3.63;;;7.00;99.90;;;;;;5035352;28;20133;-75
2021/12/12 08:52:35;;;;;;;4.13;2.67;;;7.10;99.90;;;;;;5038645;28;20520;-75
2021/12/12 08:55:07;;;;;;;10.15;4.93;;;7.10;99.90;;;;;;5023699;28;20068;-75
2021/12/12 08:57:40;;;;;;;23.55;9.23;;;7.20;99.90;;;;;;5071935;28;20087;-75
2021/12/12 09:00:11;;;;;;;12.88;6.05;;;7.20;99.90;;;;;;5042097;28;20103;-75
2021/12/12 09:02:37;;;;;;;3.78;3.22;;;7.30;99.90;;;;;;5071948;28;20040;-75
2021/12/12 09:05:13;;;;;;;8.40;4.47;;;7.30;99.90;;;;;;5020069;28;20103;-75
2021/12/12 09:07:42;;;;;;;12.05;5.68;;;7.40;99.90;;;;;;5025533;28;20032;-76
2021/12/12 09:10:21;;;;;;;6.15;4.43;;;7.40;99.90;;;;;;5069057;28;20265;-75
2021/12/12 09:13:04;;;;;;;4.88;3.38;;;7.40;99.90;;;;;;5053155;28;20037;-75
2021/12/12 09:15:42;;;;;;;5.97;3.38;;;7.40;99.90;;;;;;5017977;28;20048;-76
2021/12/12 09:18:24;;;;;;;9.82;5.05;;;7.40;99.90;;;;;;5018462;28;20492;-75
2021/12/12 09:20:56;;;;;;;22.87;10.20;;;7.50;99.90;;;;;;5027415;28;20191;-75
2021/12/12 09:23:32;;;;;;;7.88;5.32;;;7.50;99.90;;;;;;5042030;28;20411;-75
2021/12/12 09:26:10;;;;;;;4.80;4.00;;;7.60;99.90;;;;;;5035464;28;20512;-75
2021/12/12 09:29:01;;;;;;;25.77;11.20;;;7.60;99.90;;;;;;5020152;28;20040;-75
2021/12/12 09:31:40;;;;;;;15.23;5.05;;;7.70;99.90;;;;;;5038160;28;20094;-75
2021/12/12 09:34:23;;;;;;;8.18;6.15;;;7.70;99.90;;;;;;5035324;28;20500;-75
2021/12/12 09:36:57;;;;;;;2.78;1.40;;;7.80;99.90;;;;;;5019239;28;20075;-75
2021/12/12 09:39:32;;;;;;;5.53;3.92;;;7.80;99.90;;;;;;5035475;28;20110;-75
2021/12/12 09:42:35;;;;;;;37.00;12.88;;;7.80;99.90;;;;;;5030846;28;20041;-75
2021/12/12 09:45:11;;;;;;;4.65;3.10;;;7.90;99.90;;;;;;5034498;28;20048;-75
2021/12/12 09:48:13;;;;;;;10.57;4.20;;;7.90;99.90;;;;;;5031821;28;20460;-75
2021/12/12 09:51:16;;;;;;;9.95;5.13;;;8.00;99.90;;;;;;5035978;28;20501;-76
2021/12/12 09:53:47;;;;;;;8.82;4.97;;;8.00;99.90;;;;;;5018597;28;20616;-75
2021/12/12 09:56:32;;;;;;;9.55;5.63;;;8.10;99.90;;;;;;5043580;28;20367;-75
2021/12/12 09:59:31;;;;;;;18.42;9.75;;;8.10;99.90;;;;;;5024651;28;20033;-75
2021/12/12 10:02:22;;;;;;;12.77;5.63;;;8.20;99.90;;;;;;5033063;28;20045;-75
2021/12/12 10:05:03;;;;;;;10.32;3.70;;;8.20;99.90;;;;;;5017130;28;20068;-75
2021/12/12 10:08:06;;;;;;;8.35;3.47;;;8.20;99.90;;;;;;5020038;28;20041;-75
2021/12/12 10:10:47;;;;;;;6.37;4.13;;;8.20;99.90;;;;;;5024535;28;20037;-75
2021/12/12 10:13:38;;;;;;;20.02;9.40;;;8.30;99.90;;;;;;5029401;28;20041;-75
2021/12/12 10:16:13;;;;;;;13.85;7.68;;;8.30;99.90;;;;;;5023890;28;20067;-75
2021/12/12 10:18:38;;;;;;;3.55;2.30;;;8.40;99.90;;;;;;5041498;28;20040;-75
2021/12/12 10:21:24;;;;;;;3.10;2.00;;;8.40;99.90;;;;;;5054106;28;20030;-75
2021/12/12 10:24:07;;;;;;;34.10;12.05;;;8.50;99.90;;;;;;5043011;28;20485;-75
2021/12/12 10:26:44;;;;;;;;;;;8.50;99.90;;;;;;5028339;28;20033;-75
2021/12/12 10:29:15;;;;;;;10.98;5.03;;;8.50;99.90;;;;;;5044357;28;19917;-75
2021/12/12 10:31:49;;;;;;;3.72;2.40;;;8.50;99.90;;;;;;5041806;28;20047;-75
2021/12/12 10:34:33;;;;;;;17.25;6.70;;;8.60;99.90;;;;;;5021079;28;20390;-75
2021/12/12 10:37:08;;;;;;;6.13;4.50;;;8.60;99.90;;;;;;5025936;28;20060;-75
2021/12/12 10:39:42;;;;;;;6.32;3.58;;;8.60;99.90;;;;;;5027384;28;20120;-75
2021/12/12 10:42:17;;;;;;;9.00;5.53;;;8.70;99.90;;;;;;5045400;28;20523;-75
2021/12/12 10:44:49;;;;;;;2.97;2.65;;;8.70;99.90;;;;;;5034745;28;20033;-75
2021/12/12 10:47:28;;;;;;;15.90;3.88;;;8.70;99.90;;;;;;5026519;28;20048;-75
2021/12/12 10:50:11;;;;;;;2.03;1.90;;;8.80;99.90;;;;;;5042836;28;20123;-75
2021/12/12 10:53:19;;;;;;;21.45;8.30;;;8.80;99.90;;;;;;5075656;28;20517;-76
2021/12/12 10:55:53;;;;;;;0.38;0.38;;;8.80;99.90;;;;;;5035300;28;20111;-75
2021/12/12 10:58:28;;;;;;;7.70;4.20;;;8.90;99.90;;;;;;5028999;28;20083;-74
2021/12/12 11:01:01;;;;;;;1.17;1.08;;;8.90;99.90;;;;;;5043723;28;20447;-75
2021/12/12 11:03:38;;;;;;;12.25;6.10;;;9.00;99.90;;;;;;5019855;28;20123;-75
2021/12/12 11:06:15;;;;;;;10.30;4.15;;;9.00;99.90;;;;;;5032953;28;20137;-75
2021/12/12 11:09:03;;;;;;;21.15;8.13;;;9.00;99.90;;;;;;5046180;28;20433;-75
2021/12/12 11:11:51;;;;;;;2.70;2.50;;;9.10;99.90;;;;;;5039511;28;20040;-75
2021/12/12 11:14:25;;;;;;;10.02;5.50;;;9.10;99.90;;;;;;5054940;28;20522;-75
2021/12/12 11:17:04;;;;;;;7.72;4.07;;;9.10;99.90;;;;;;5024393;28;20045;-75
2021/12/12 11:19:36;;;;;;;11.15;5.32;;;9.10;99.90;;;;;;5033702;28;20049;-75
2021/12/12 11:22:10;;;;;;;2.08;1.90;;;9.10;99.90;;;;;;5037769;28;20038;-75
2021/12/12 11:24:40;;;;;;;33.47;12.52;;;9.20;99.90;;;;;;5022180;28;20495;-75
2021/12/12 11:27:14;;;;;;;6.18;3.55;;;9.20;99.90;;;;;;5062033;28;20055;-75
2021/12/12 11:29:46;;;;;;;7.13;3.60;;;9.20;99.90;;;;;;5028655;28;20052;-75
2021/12/12 11:32:24;;;;;;;6.80;4.90;;;9.30;99.90;;;;;;5074620;28;20503;-75
2021/12/12 11:34:53;;;;;;;11.50;4.97;;;9.30;99.90;;;;;;5027716;28;20040;-75
2021/12/12 11:37:39;;;;;;;7.88;4.88;;;9.30;99.90;;;;;;5019050;28;20053;-75
2021/12/12 11:40:39;;;;;;;5.93;4.32;;;9.30;99.90;;;;;;5067846;28;20049;-75
2021/12/12 11:43:34;;;;;;;14.65;2.97;;;9.30;99.90;;;;;;5041737;28;20037;-75
2021/12/12 11:46:10;;;;;;;6.35;4.25;;;9.30;99.90;;;;;;5015196;28;20053;-76
2021/12/12 11:48:51;;;;;;;0.57;0.57;;;9.30;99.90;;;;;;5021115;28;20067;-75
2021/12/12 11:51:38;;;;;;;4.75;2.53;;;9.30;99.90;;;;;;5040182;28;20045;-76
2021/12/12 11:54:15;;;;;;;5.00;3.45;;;9.40;99.90;;;;;;5076577;28;20572;-75
2021/12/12 11:56:53;;;;;;;5.63;3.45;;;9.40;99.90;;;;;;5034377;28;20049;-75
2021/12/12 11:59:25;;;;;;;5.47;3.03;;;9.40;99.90;;;;;;5040909;28;20123;-75
2021/12/12 12:02:06;;;;;;;5.80;3.83;;;9.40;99.90;;;;;;5059457;28;20162;-76
2021/12/12 12:05:00;;;;;;;3.33;3.00;;;9.40;99.90;;;;;;5067725;28;20045;-76
2021/12/12 12:08:07;;;;;;;4.63;3.03;;;9.50;99.90;;;;;;5035218;28;20103;-75
2021/12/12 12:10:50;;;;;;;2.67;2.28;;;9.40;99.90;;;;;;5035450;28;20048;-75
2021/12/12 12:13:43;;;;;;;8.55;4.50;;;9.50;99.90;;;;;;5074500;28;20073;-75
2021/12/12 12:16:48;;;;;;;7.35;2.65;;;9.50;99.90;;;;;;5037742;28;20054;-75
2021/12/12 12:19:22;;;;;;;10.27;5.45;;;9.60;99.90;;;;;;5027561;28;20124;-75
2021/12/12 12:22:23;;;;;;;4.57;3.30;;;9.60;99.90;;;;;;5025002;28;20048;-76
2021/12/12 12:25:02;;;;;;;2.38;2.20;;;9.60;99.90;;;;;;5021182;28;20041;-75
2021/12/12 12:27:36;;;;;;;1.75;1.65;;;9.60;99.90;;;;;;5035315;28;20037;-75
2021/12/12 12:30:04;;;;;;;1.55;1.40;;;9.60;99.90;;;;;;5036224;28;20034;-74
2021/12/12 12:33:07;;;;;;;1.70;1.60;;;9.60;99.90;;;;;;5018367;28;20043;-75
2021/12/12 12:36:12;;;;;;;6.30;4.25;;;9.60;99.90;;;;;;5024037;28;20211;-75
2021/12/12 12:39:02;;;;;;;9.23;4.65;;;9.70;99.90;;;;;;5039483;28;20152;-74
2021/12/12 12:41:28;;;;;;;2.15;1.95;;;9.70;99.90;;;;;;5033885;28;20037;-75
2021/12/12 12:44:32;;;;;;;0.68;0.68;;;9.70;99.90;;;;;;5022725;28;20036;-75
2021/12/12 12:47:35;;;;;;;4.13;3.13;;;9.70;99.90;;;;;;5037708;28;20029;-75
2021/12/12 12:50:42;;;;;;;19.98;8.30;;;9.70;99.90;;;;;;5038915;28;20045;-75
2021/12/12 12:53:26;;;;;;;4.50;2.83;;;9.80;99.90;;;;;;5033289;28;20049;-75
2021/12/12 12:56:29;;;;;;;12.77;5.68;;;9.80;99.90;;;;;;5035155;28;20118;-75
2021/12/12 12:58:55;;;;;;;2.90;2.22;;;9.80;99.90;;;;;;5045092;28;20072;-75
2021/12/12 13:01:36;;;;;;;11.43;4.00;;;9.90;99.90;;;;;;5040449;28;20409;-75
2021/12/12 13:04:01;;;;;;;1.70;1.60;;;9.80;99.90;;;;;;5036925;28;20037;-75
2021/12/12 13:07:02;;;;;;;5.18;3.28;;;9.90;99.90;;;;;;5015891;28;20041;-75
2021/12/12 13:09:39;;;;;;;4.32;2.05;;;9.90;99.90;;;;;;5038903;28;20048;-75
2021/12/12 13:12:29;;;;;;;7.50;3.90;;;9.90;99.90;;;;;;5025457;28;20045;-75
2021/12/12 13:15:14;;;;;;;2.83;1.88;;;9.90;99.90;;;;;;5044097;28;20106;-75
2021/12/12 13:18:08;;;;;;;11.35;4.43;;;9.90;99.90;;;;;;5041316;28;20052;-75
2021/12/12 13:20:59;;;;;;;16.67;7.07;;;9.90;99.90;;;;;;5029202;28;20124;-75
2021/12/12 13:23:47;;;;;;;11.68;6.07;;;9.90;99.90;;;;;;5067496;28;20041;-75
2021/12/12 13:26:23;;;;;;;5.57;2.90;;;9.90;99.90;;;;;;5020975;28;20607;-75
2021/12/12 13:29:06;;;;;;;33.13;10.98;;;10.00;99.90;;;;;;5020783;28;20057;-75
2021/12/12 13:31:39;;;;;;;;;;;10.00;99.90;;;;;;5059348;28;24908;-75
2021/12/12 13:34:16;;;;;;;3.05;2.35;;;10.00;99.90;;;;;;5073950;28;19921;-75
2021/12/12 13:37:03;;;;;;;6.45;3.42;;;10.00;99.90;;;;;;5021300;28;20397;-74
2021/12/12 13:39:38;;;;;;;7.43;3.50;;;10.00;99.90;;;;;;5039240;28;20051;-75
2021/12/12 13:42:13;;;;;;;3.08;2.58;;;10.10;99.90;;;;;;5068094;28;20106;-75
2021/12/12 13:45:04;;;;;;;10.23;5.25;;;10.20;99.90;;;;;;5018533;28;20048;-75
2021/12/12 13:48:05;;;;;;;3.70;2.03;;;10.20;99.90;;;;;;5049840;28;20044;-75